METAR AND TAF INFORMATION
METAR FOR KHZR
ADDS - METARS form results

(0858 UTC 16 May 2022)
Data provider http://aviationweather.gov/metar/data/
 
METAR text: KHZR 160835Z AUTO 00000KT 10SM CLR 23/22 A2992 RMK AO2 T02280221
Conditions at: KHZR (NEW ROADS , LA, US) observed 0835 UTC 16 May 2022
Temperature: 22.8°C (73°F)
Dewpoint: 22.1°C (72°F) [RH = 96%]
Pressure (altimeter): 29.92 inches Hg (1013.3 mb)
Winds: calm
Visibility: 10 or more miles (16+ km)
Ceiling: at least 12,000 feet AGL
Clouds: sky clear below 12,000 feet AGL
Weather: automated observation with no human augmentation;
there may or may not be significant weather present at this time

METAR text: KHZR 160815Z AUTO 25004KT 10SM CLR 23/22 A2992 RMK AO2 T02300221
Conditions at: KHZR (NEW ROADS , LA, US) observed 0815 UTC 16 May 2022
Temperature: 23.0°C (73°F)
Dewpoint: 22.1°C (72°F) [RH = 95%]
Pressure (altimeter): 29.92 inches Hg (1013.3 mb)
Winds: from the WSW (250 degrees) at 5 MPH (4 knots; 2.1 m/s)
Visibility: 10 or more miles (16+ km)
Ceiling: at least 12,000 feet AGL
Clouds: sky clear below 12,000 feet AGL
Weather: automated observation with no human augmentation;
there may or may not be significant weather present at this time

 AIRPORT MAP

 RUNWAY INFORMATION
Runway 18 Runway length 5002 ft Runway width 75 ft
Runway elevation 39 ft Runway displaced threshold 0 ft Runway heading 184
Runway 36 Runway length 5002 ft Runway width 75 ft
Runway elevation 32 ft Runway displaced threshold 0 ft Runway heading 4

 AIRPORT FREQUENCIES
Type A/D Name BATON ROUG Frequency 120.3 MHZ
Type UNIC Name CTAF/UNICO Frequency 122.8 MHZ

 AIRPORT NEAR NAVIGATION AIDS





Powered by Virtual Airlines Manager

Maps by Rafael Santos